Zamyn-Uud, Mongolia
Current Conditions -  °F | °C
As of 11:00 AM on Monday 24 Nov 2014 (Local Time) from ZBHH Reporting Station
Clear Clear  
Wind Chill: 28°   Ceiling: Unl
Heat Index: 32°   Visibility: 6mi
Dew Point: 12°   Wind: 4mph
Humidity: 44%   Direction: 180°S
Pressure: 30.3"   Gusts: NA
Location:  43.73°N, 111.9°E
Report Text: ZBHH 240300Z 18002MPS 120V230 CAVOK M00/M11 Q1026 NOSIG
Loading
Personal Weather Stations






























Interactive Weather Map New forecast layout! Learn more

10-Day Weather Forecast

Advertisements
Track Severe Weather on mobile